createdAt,value
2023-02-21T00:02:13.714Z,95332.78
2023-02-21T00:04:40.039Z,95328.09
2023-02-21T00:07:06.437Z,95329.47
2023-02-21T00:09:32.767Z,95329.02
2023-02-21T00:11:59.176Z,95329.59
2023-02-21T00:14:25.528Z,95332.05
2023-02-21T00:16:51.947Z,95333.00
2023-02-21T00:19:18.264Z,95335.20
2023-02-21T00:21:44.658Z,95327.61
2023-02-21T00:24:10.998Z,95326.88
2023-02-21T00:26:37.394Z,95331.94
2023-02-21T00:29:03.717Z,95324.30
2023-02-21T00:31:30.155Z,95330.64
2023-02-21T00:33:56.461Z,95326.41
2023-02-21T00:36:22.880Z,95320.20
2023-02-21T00:38:49.235Z,95314.69
2023-02-21T00:41:15.925Z,95314.22
2023-02-21T00:43:41.981Z,95310.95
2023-02-21T00:46:08.408Z,95308.38
2023-02-21T00:48:34.738Z,95308.70
2023-02-21T00:51:01.117Z,95297.34
2023-02-21T00:53:27.464Z,95302.62
2023-02-21T00:55:53.851Z,95293.14
2023-02-21T00:58:20.199Z,95301.79
2023-02-21T01:00:46.595Z,95296.18
2023-02-21T01:03:12.970Z,95285.52
2023-02-21T01:05:39.349Z,95288.09
2023-02-21T01:08:05.689Z,95278.38
2023-02-21T01:10:32.073Z,95271.11
2023-02-21T01:12:58.476Z,95272.49
2023-02-21T01:15:24.870Z,95272.40
2023-02-21T01:17:51.218Z,95261.73
2023-02-21T01:20:17.606Z,95266.06
2023-02-21T01:22:43.961Z,95250.73
2023-02-21T01:25:10.351Z,95240.99
2023-02-21T01:27:36.685Z,95243.94
2023-02-21T01:30:03.223Z,95237.13
2023-02-21T01:32:29.436Z,95238.09
2023-02-21T01:34:55.801Z,95244.98
2023-02-21T01:37:22.164Z,95241.12
2023-02-21T01:39:49.748Z,95243.00
2023-02-21T01:42:14.915Z,95248.48
2023-02-21T01:44:41.331Z,95246.49
2023-02-21T01:47:08.889Z,95234.55
2023-02-21T01:49:34.061Z,95244.84
2023-02-21T01:52:00.410Z,95244.28
2023-02-21T01:54:26.798Z,95235.83
2023-02-21T01:56:53.135Z,95227.74
2023-02-21T01:59:19.534Z,95232.55
2023-02-21T02:01:45.869Z,95226.12
2023-02-21T02:04:12.310Z,95214.17
2023-02-21T02:06:38.647Z,95216.34
2023-02-21T02:09:05.109Z,95214.27
2023-02-21T02:11:31.462Z,95203.61
2023-02-21T02:13:57.833Z,95204.89
2023-02-21T02:16:24.168Z,95199.37
2023-02-21T02:18:50.555Z,95199.05
2023-02-21T02:21:17.087Z,95189.55
2023-02-21T02:23:43.292Z,95185.81
2023-02-21T02:26:09.638Z,95189.20
2023-02-21T02:28:36.016Z,95185.44
2023-02-21T02:31:02.464Z,95193.53
2023-02-21T02:33:28.745Z,95199.14
2023-02-21T02:35:55.104Z,95189.77
2023-02-21T02:38:21.500Z,95184.38
2023-02-21T02:40:47.839Z,95189.06
2023-02-21T02:43:14.239Z,95181.44
2023-02-21T02:45:40.578Z,95189.98
2023-02-21T02:48:06.967Z,95186.49
2023-02-21T02:50:33.314Z,95189.89
2023-02-21T02:52:59.686Z,95182.86
2023-02-21T02:55:26.045Z,95181.94
2023-02-21T02:57:52.433Z,95176.52
2023-02-21T03:00:18.908Z,95180.84
2023-02-21T03:02:45.287Z,95179.55
2023-02-21T03:05:11.622Z,95189.84
2023-02-21T03:07:38.018Z,95191.63
2023-02-21T03:10:04.375Z,95185.05
2023-02-21T03:12:30.752Z,95191.12
2023-02-21T03:14:57.105Z,95193.69
2023-02-21T03:17:23.492Z,95192.86
2023-02-21T03:19:49.836Z,95198.97
2023-02-21T03:22:16.289Z,95196.85
2023-02-21T03:24:42.592Z,95194.73
2023-02-21T03:27:09.001Z,95187.84
2023-02-21T03:29:35.342Z,95185.27
2023-02-21T03:32:01.753Z,95154.45
2023-02-21T03:34:28.097Z,95176.73
2023-02-21T03:36:54.483Z,95174.85
2023-02-21T03:39:20.846Z,95169.00
2023-02-21T03:41:47.226Z,95168.64
2023-02-21T03:44:13.589Z,95164.56
2023-02-21T03:46:41.038Z,95172.04
2023-02-21T03:49:06.364Z,95167.13
2023-02-21T03:51:32.735Z,95170.29
2023-02-21T03:53:59.070Z,95170.29
2023-02-21T03:56:33.345Z,95173.69
2023-02-21T03:58:51.825Z,95181.05
2023-02-21T04:01:18.369Z,95181.97
2023-02-21T04:03:44.592Z,95184.91
2023-02-21T04:06:10.977Z,95184.30
2023-02-21T04:08:37.326Z,95187.23
2023-02-21T04:11:03.711Z,95190.73
2023-02-21T04:13:30.056Z,95190.27
2023-02-21T04:15:56.493Z,95196.70
2023-02-21T04:18:22.794Z,95193.89
2023-02-21T04:20:49.178Z,95194.26
2023-02-21T04:23:15.557Z,95199.87
2023-02-21T04:25:41.955Z,95194.26
2023-02-21T04:28:08.317Z,95210.98
2023-02-21T04:30:34.752Z,95208.41
2023-02-21T04:33:01.071Z,95205.34
2023-02-21T04:35:27.449Z,95208.28
2023-02-21T04:37:53.802Z,95219.41
2023-02-21T04:40:20.180Z,95223.36
2023-02-21T04:42:46.605Z,95221.61
2023-02-21T04:45:12.936Z,95217.30
2023-02-21T04:47:39.288Z,95220.33
2023-02-21T04:50:05.737Z,95217.30
2023-02-21T04:52:32.085Z,95212.15
2023-02-21T04:54:58.471Z,95210.86
2023-02-21T04:57:24.864Z,95209.11
2023-02-21T04:59:51.243Z,95200.11
2023-02-21T05:02:17.589Z,95204.89
2023-02-21T05:07:29.203Z,95191.92
2023-02-21T05:09:55.601Z,95184.30
2023-02-21T05:12:21.963Z,95179.06
2023-02-21T05:14:48.355Z,95176.48
2023-02-21T05:17:14.703Z,95183.25
2023-02-21T05:19:41.093Z,95178.47
2023-02-21T05:22:07.439Z,95172.50
2023-02-21T05:24:33.863Z,95172.28
2023-02-21T05:27:00.206Z,95177.80
2023-02-21T05:29:26.606Z,95170.08
2023-02-21T05:31:52.993Z,95173.64
2023-02-21T05:34:19.344Z,95182.88
2023-02-21T05:36:45.693Z,95174.97
2023-02-21T05:39:12.110Z,95182.27
2023-02-21T05:41:38.473Z,95177.72
2023-02-21T05:44:04.851Z,95191.16
2023-02-21T05:46:31.209Z,95188.62
2023-02-21T05:48:57.610Z,95184.99
2023-02-21T05:51:23.944Z,95197.05
2023-02-21T05:53:50.333Z,95189.23
2023-02-21T05:56:16.685Z,95191.81
2023-02-21T05:58:43.085Z,95193.42
2023-02-21T06:01:09.432Z,95204.37
2023-02-21T06:03:35.845Z,95199.54
2023-02-21T06:06:02.161Z,95203.30
2023-02-21T06:08:31.072Z,95196.73
2023-02-21T06:10:57.421Z,95199.31
2023-02-21T06:13:23.814Z,95203.67
2023-02-21T06:15:50.218Z,95200.27
2023-02-21T06:18:16.633Z,95211.73
2023-02-21T06:20:42.931Z,95209.06
2023-02-21T06:23:09.417Z,95216.20
2023-02-21T06:25:35.775Z,95211.05
2023-02-21T06:28:02.157Z,95208.97
2023-02-21T06:30:28.610Z,95208.50
2023-02-21T06:32:55.014Z,95217.98
2023-02-21T06:35:21.392Z,95213.16
2023-02-21T06:37:47.803Z,95218.22
2023-02-21T06:40:14.153Z,95216.56
2023-02-21T06:42:40.544Z,95228.16
2023-02-21T06:45:06.997Z,95225.72
2023-02-21T06:47:33.386Z,95227.00
2023-02-21T06:49:59.734Z,95234.38
2023-02-21T06:52:26.141Z,95230.27
2023-02-21T06:54:52.473Z,95226.41
2023-02-21T06:57:18.870Z,95224.66
2023-02-21T06:59:45.220Z,95225.48
2023-02-21T07:02:11.628Z,95223.97
2023-02-21T07:04:38.009Z,95218.34
2023-02-21T07:07:04.380Z,95217.98
2023-02-21T07:09:30.911Z,95226.08
2023-02-21T07:11:57.316Z,95228.19
2023-02-21T07:14:23.669Z,95217.62
2023-02-21T07:16:50.064Z,95220.79
2023-02-21T07:21:42.340Z,95222.81
2023-02-21T07:24:08.689Z,95222.94
2023-02-21T07:26:35.105Z,95225.25
2023-02-21T07:29:01.588Z,95219.64
2023-02-21T07:31:28.041Z,95218.18
2023-02-21T07:33:54.345Z,95219.56
2023-02-21T07:36:20.733Z,95206.09
2023-02-21T07:38:47.162Z,95209.16
2023-02-21T07:41:13.943Z,95196.27
2023-02-21T07:43:40.011Z,95196.38
2023-02-21T07:46:06.397Z,95193.93
2023-02-21T07:48:32.799Z,95197.56
2023-02-21T07:50:59.139Z,95186.89
2023-02-21T07:53:25.529Z,95189.34
2023-02-21T07:55:51.920Z,95188.05
2023-02-21T07:58:21.031Z,95181.86
2023-02-21T08:00:44.798Z,95188.63
2023-02-21T08:03:11.189Z,95185.83
2023-02-21T08:05:37.577Z,95183.94
2023-02-21T08:08:03.957Z,95183.95
2023-02-21T08:10:30.317Z,95172.61
2023-02-21T08:12:56.719Z,95176.68
2023-02-21T08:15:23.146Z,95176.20
2023-02-21T08:17:49.518Z,95175.28
2023-02-21T08:20:15.910Z,95174.94
2023-02-21T08:22:43.296Z,95184.41
2023-02-21T08:25:09.635Z,95181.61
2023-02-21T08:27:36.058Z,95184.78
2023-02-21T08:30:02.426Z,95169.19
2023-02-21T08:32:28.845Z,95173.06
2023-02-21T08:34:56.120Z,95168.68
2023-02-21T08:37:21.604Z,95158.04
2023-02-21T08:39:47.950Z,95162.23
2023-02-21T08:42:14.359Z,95159.98
2023-02-21T08:44:40.736Z,95163.98
2023-02-21T08:47:07.185Z,95158.47
2023-02-21T08:49:33.547Z,95152.13
2023-02-21T08:51:59.952Z,95155.84
2023-02-21T08:54:26.306Z,95156.09
2023-02-21T08:56:52.700Z,95158.67
2023-02-21T08:59:19.108Z,95157.22
2023-02-21T09:01:45.490Z,95154.33
2023-02-21T09:04:11.817Z,95152.23
2023-02-21T09:06:38.210Z,95151.45
2023-02-21T09:09:04.667Z,95149.55
2023-02-21T09:11:31.066Z,95148.58
2023-02-21T09:13:57.437Z,95141.48
2023-02-21T09:16:23.919Z,95142.95
2023-02-21T09:18:50.274Z,95145.05
2023-02-21T09:21:16.801Z,95138.58
2023-02-21T09:23:43.049Z,95148.91
2023-02-21T09:26:09.466Z,95133.38
2023-02-21T09:28:35.938Z,95129.11
2023-02-21T09:31:02.337Z,95130.04
2023-02-21T09:33:28.697Z,95125.80
2023-02-21T09:35:55.095Z,95127.31
2023-02-21T09:38:21.450Z,95123.02
2023-02-21T09:40:47.842Z,95110.50
2023-02-21T09:43:14.188Z,95112.19
2023-02-21T09:45:40.599Z,95107.59
2023-02-21T09:48:06.929Z,95115.48
2023-02-21T09:50:33.333Z,95106.12
2023-02-21T09:52:59.679Z,95104.61
2023-02-21T09:55:26.089Z,95110.03
2023-02-21T09:57:52.434Z,95099.59
2023-02-21T10:00:18.858Z,95097.41
2023-02-21T10:02:45.189Z,95095.39
2023-02-21T10:05:11.595Z,95095.89
2023-02-21T10:07:37.933Z,95090.73
2023-02-21T10:10:04.364Z,95082.84
2023-02-21T10:12:30.721Z,95073.12
2023-02-21T10:14:57.114Z,95069.62
2023-02-21T10:17:23.476Z,95064.55
2023-02-21T10:19:49.854Z,95066.98
2023-02-21T10:22:16.247Z,95055.06
2023-02-21T10:24:42.639Z,95054.28
2023-02-21T10:27:08.989Z,95052.99
2023-02-21T10:29:35.379Z,95048.92
2023-02-21T10:32:01.762Z,95048.45
2023-02-21T10:34:28.155Z,95053.19
2023-02-21T10:36:54.558Z,95043.47
2023-02-21T10:39:20.917Z,95035.52
2023-02-21T10:41:47.277Z,95033.92
2023-02-21T10:44:13.650Z,95020.83
2023-02-21T10:46:40.009Z,95015.31
2023-02-21T10:49:06.399Z,95013.96
2023-02-21T10:51:32.769Z,95005.89
2023-02-21T10:53:59.174Z,94985.80
2023-02-21T10:56:25.539Z,94985.80
2023-02-21T10:58:51.950Z,94988.90
2023-02-21T11:01:18.680Z,94994.35
2023-02-21T11:03:44.755Z,94974.98
2023-02-21T11:06:11.129Z,94974.98
2023-02-21T11:08:37.538Z,94961.71
2023-02-21T11:11:03.898Z,94961.71
2023-02-21T11:13:30.296Z,94957.38
2023-02-21T11:15:56.666Z,94952.94
2023-02-21T11:18:23.052Z,94949.63
2023-02-21T11:20:49.409Z,94952.94
2023-02-21T11:23:15.792Z,94939.44
2023-02-21T11:25:42.151Z,94914.48
2023-02-21T11:28:08.658Z,94914.48
2023-02-21T11:30:35.037Z,94926.95
2023-02-21T11:33:01.472Z,94926.95
2023-02-21T11:35:27.816Z,94912.59
2023-02-21T11:37:54.264Z,94912.59
2023-02-21T11:40:20.608Z,94901.80
2023-02-21T11:42:47.014Z,94930.03
2023-02-21T11:45:13.365Z,94923.26
2023-02-21T11:47:39.859Z,94901.19
2023-02-21T11:50:07.404Z,94904.64
2023-02-21T11:52:33.842Z,94904.35
2023-02-21T11:54:58.946Z,94888.83
2023-02-21T11:57:25.344Z,94856.58
2023-02-21T11:59:51.706Z,94856.58
2023-02-21T12:02:20.602Z,94887.19
2023-02-21T12:04:44.521Z,94870.59
2023-02-21T12:07:10.942Z,94870.59
2023-02-21T12:09:37.303Z,94868.68
2023-02-21T12:12:03.802Z,94863.45
2023-02-21T12:14:30.196Z,94845.83
2023-02-21T12:16:56.648Z,94853.78
2023-02-21T12:19:22.997Z,94839.84
2023-02-21T12:21:49.377Z,94839.84
2023-02-21T12:24:15.740Z,94839.97
2023-02-21T12:26:42.124Z,94833.52
2023-02-21T12:29:08.491Z,94827.00
2023-02-21T12:31:34.966Z,94853.52
2023-02-21T12:34:01.287Z,94826.58
2023-02-21T12:36:27.720Z,94809.98
2023-02-21T12:38:54.075Z,94809.98
2023-02-21T12:41:20.533Z,94825.16
2023-02-21T12:43:46.868Z,94825.16
2023-02-21T12:46:13.320Z,94819.72
2023-02-21T12:48:39.684Z,94817.53
2023-02-21T12:51:06.120Z,94813.38
2023-02-21T12:53:32.464Z,94816.11
2023-02-21T12:56:00.800Z,94810.52
2023-02-21T12:58:25.225Z,94807.88
2023-02-21T13:00:51.614Z,94807.88
2023-02-21T13:03:17.975Z,94783.53
2023-02-21T13:05:44.390Z,94809.18
2023-02-21T13:08:10.725Z,94810.00
2023-02-21T13:10:37.114Z,94807.89
2023-02-21T13:13:03.488Z,94808.36
2023-02-21T13:15:29.976Z,94802.30
2023-02-21T13:17:56.315Z,94808.28
2023-02-21T13:20:22.709Z,94792.78
2023-02-21T13:22:49.062Z,94794.82
2023-02-21T13:25:15.461Z,94792.11
2023-02-21T13:27:41.806Z,94789.19
2023-02-21T13:30:08.266Z,94791.09
2023-02-21T13:32:34.573Z,94789.84
2023-02-21T13:35:00.965Z,94788.75
2023-02-21T13:37:27.305Z,94775.44
2023-02-21T13:39:54.124Z,94780.80
2023-02-21T13:42:20.143Z,94782.56
2023-02-21T13:44:46.536Z,94777.12
2023-02-21T13:47:12.877Z,94778.38
2023-02-21T13:49:39.294Z,94768.63
2023-02-21T13:52:05.718Z,94762.92
2023-02-21T13:54:32.127Z,94765.66
2023-02-21T13:56:58.464Z,94760.88
2023-02-21T13:59:24.858Z,94756.27
2023-02-21T14:01:51.349Z,94759.67
2023-02-21T14:04:17.725Z,94753.83
2023-02-21T14:06:44.019Z,94753.09
2023-02-21T14:09:10.410Z,94755.09
2023-02-21T14:11:36.777Z,94758.06
2023-02-21T14:14:03.203Z,94746.44
2023-02-21T14:16:29.658Z,94748.91
2023-02-21T14:18:55.968Z,94752.81
2023-02-21T14:21:22.339Z,94738.84
2023-02-21T14:23:48.709Z,94738.84
2023-02-21T14:26:15.174Z,94753.44
2023-02-21T14:28:41.494Z,94750.78
2023-02-21T14:31:07.824Z,94744.75
2023-02-21T14:33:34.216Z,94744.75
2023-02-21T14:36:00.557Z,94748.39
2023-02-21T14:38:26.967Z,94728.00
2023-02-21T14:40:53.322Z,94727.05
2023-02-21T14:43:19.715Z,94750.73
2023-02-21T14:45:46.120Z,94744.64
2023-02-21T14:48:12.432Z,94734.44
2023-02-21T14:50:38.807Z,94743.38
2023-02-21T14:53:05.273Z,94743.38
2023-02-21T14:55:31.586Z,94734.24
2023-02-21T14:57:57.987Z,94734.24
2023-02-21T15:00:24.327Z,94743.09
2023-02-21T15:02:50.758Z,94737.38
2023-02-21T15:05:17.095Z,94738.12
2023-02-21T15:07:43.495Z,94733.16
2023-02-21T15:10:11.097Z,94737.31
2023-02-21T15:12:36.248Z,94740.88
2023-02-21T15:15:02.584Z,94742.64
2023-02-21T15:17:28.996Z,94742.56
2023-02-21T15:19:55.399Z,94729.52
2023-02-21T15:22:24.442Z,94729.52
2023-02-21T15:24:48.130Z,94746.23
2023-02-21T15:27:14.513Z,94746.71
2023-02-21T15:29:40.858Z,94743.46
2023-02-21T15:32:07.300Z,94748.20
2023-02-21T15:34:33.585Z,94748.55
2023-02-21T15:36:59.971Z,94728.73
2023-02-21T15:39:26.382Z,94755.35
2023-02-21T15:41:52.844Z,94733.04
2023-02-21T15:44:19.177Z,94757.70
2023-02-21T15:46:45.565Z,94740.59
2023-02-21T15:49:11.899Z,94757.65
2023-02-21T15:51:38.384Z,94764.78
2023-02-21T15:54:04.728Z,94750.44
2023-02-21T15:56:31.101Z,94763.02
2023-02-21T15:58:57.472Z,94758.52
2023-02-21T16:01:23.844Z,94759.81
2023-02-21T16:03:50.157Z,94768.31
2023-02-21T16:06:17.744Z,94766.55
2023-02-21T16:08:42.898Z,94768.46
2023-02-21T16:11:09.277Z,94768.31
2023-02-21T16:13:35.615Z,94768.92
2023-02-21T16:16:02.105Z,94768.92
2023-02-21T16:18:28.345Z,94783.75
2023-02-21T16:20:54.733Z,94783.05
2023-02-21T16:23:21.089Z,94767.89
2023-02-21T16:25:47.470Z,94776.02
2023-02-21T16:28:13.828Z,94789.17
2023-02-21T16:30:40.421Z,94789.17
2023-02-21T16:33:06.575Z,94789.17
2023-02-21T16:35:32.960Z,94795.73
2023-02-21T16:37:59.320Z,94790.38
2023-02-21T16:40:25.700Z,94799.23
2023-02-21T16:42:52.111Z,94799.23
2023-02-21T16:45:18.479Z,94801.55
2023-02-21T16:47:44.821Z,94806.24
2023-02-21T16:50:11.208Z,94798.44
2023-02-21T16:52:37.553Z,94789.17
2023-02-21T16:55:04.055Z,94789.67
2023-02-21T16:57:30.392Z,94789.67
2023-02-21T16:59:56.930Z,94807.56
2023-02-21T17:02:23.288Z,94807.56
2023-02-21T17:04:49.650Z,94813.28
2023-02-21T17:07:15.982Z,94814.57
2023-02-21T17:09:42.352Z,94810.50
2023-02-21T17:12:08.686Z,94795.19
2023-02-21T17:14:35.164Z,94795.19
2023-02-21T17:17:01.500Z,94812.91
2023-02-21T17:19:27.921Z,94812.14
2023-02-21T17:21:54.260Z,94805.30
2023-02-21T17:24:20.634Z,94805.30
2023-02-21T17:26:46.994Z,94819.33
2023-02-21T17:29:13.360Z,94816.04
2023-02-21T17:31:39.768Z,94816.66
2023-02-21T17:34:06.112Z,94812.70
2023-02-21T17:36:32.454Z,94817.66
2023-02-21T17:38:59.124Z,94820.33
2023-02-21T17:41:25.192Z,94824.58
2023-02-21T17:43:51.581Z,94818.27
2023-02-21T17:46:17.959Z,94822.34
2023-02-21T17:48:44.299Z,94823.20
2023-02-21T17:51:10.647Z,94817.16
2023-02-21T17:53:36.983Z,94817.16
2023-02-21T17:56:03.357Z,94813.75
2023-02-21T17:58:29.694Z,94816.42
2023-02-21T18:00:56.080Z,94812.55
2023-02-21T18:03:22.450Z,94814.52
2023-02-21T18:05:48.860Z,94815.16
2023-02-21T18:08:15.200Z,94820.94
2023-02-21T18:10:41.619Z,94822.58
2023-02-21T18:13:08.008Z,94820.47
2023-02-21T18:15:34.350Z,94827.03
2023-02-21T18:18:00.713Z,94827.03
2023-02-21T18:20:27.103Z,94827.03
2023-02-21T18:22:53.511Z,94825.16
2023-02-21T18:25:19.880Z,94824.55
2023-02-21T18:27:46.215Z,94825.92
2023-02-21T18:30:12.615Z,94825.92
2023-02-21T18:32:38.987Z,94824.75
2023-02-21T18:35:05.373Z,94825.37
2023-02-21T18:37:31.733Z,94823.25
2023-02-21T18:39:58.102Z,94824.08
2023-02-21T18:42:24.547Z,94832.08
2023-02-21T18:44:51.023Z,94835.59
2023-02-21T18:47:17.359Z,94834.10
2023-02-21T18:49:43.762Z,94837.41
2023-02-21T18:52:10.111Z,94837.41
2023-02-21T18:54:36.493Z,94838.70
2023-02-21T18:57:02.856Z,94845.41
2023-02-21T18:59:29.250Z,94845.41
2023-02-21T19:01:55.580Z,94846.34
2023-02-21T19:04:21.996Z,94846.34
2023-02-21T19:06:48.349Z,94838.30
2023-02-21T19:09:14.760Z,94830.12
2023-02-21T19:11:41.092Z,94851.51
2023-02-21T19:14:07.474Z,94851.77
2023-02-21T19:16:33.923Z,94854.56
2023-02-21T19:19:00.196Z,94855.99
2023-02-21T19:21:26.547Z,94863.05
2023-02-21T19:23:52.917Z,94846.67
2023-02-21T19:26:19.264Z,94846.67
2023-02-21T19:28:45.649Z,94867.16
2023-02-21T19:31:12.063Z,94872.45
2023-02-21T19:33:38.378Z,94877.47
2023-02-21T19:36:04.713Z,94884.65
2023-02-21T19:38:31.090Z,94884.30
2023-02-21T19:40:57.439Z,94883.47
2023-02-21T19:43:23.829Z,94886.98
2023-02-21T19:45:50.222Z,94874.39
2023-02-21T19:48:16.581Z,94874.39
2023-02-21T19:50:42.911Z,94886.42
2023-02-21T19:53:09.288Z,94891.72
2023-02-21T19:55:35.629Z,94898.28
2023-02-21T19:58:02.019Z,94891.37
2023-02-21T20:00:28.359Z,94890.69
2023-02-21T20:02:54.747Z,94896.67
2023-02-21T20:05:21.094Z,94894.20
2023-02-21T20:07:47.485Z,94894.55
2023-02-21T20:10:13.825Z,94897.39
2023-02-21T20:12:40.256Z,94900.91
2023-02-21T20:15:06.563Z,94891.77
2023-02-21T20:17:32.949Z,94900.08
2023-02-21T20:19:59.283Z,94900.69
2023-02-21T20:22:25.697Z,94899.44
2023-02-21T20:24:52.012Z,94893.31
2023-02-21T20:27:18.401Z,94899.77
2023-02-21T20:29:44.757Z,94894.28
2023-02-21T20:32:11.201Z,94901.20
2023-02-21T20:34:37.479Z,94900.23
2023-02-21T20:37:03.865Z,94895.08
2023-02-21T20:39:30.206Z,94883.08
2023-02-21T20:41:56.601Z,94883.08
2023-02-21T20:44:22.965Z,94901.92
2023-02-21T20:46:49.326Z,94900.27
2023-02-21T20:49:15.680Z,94897.34
2023-02-21T20:51:42.056Z,94894.44
2023-02-21T20:54:08.406Z,94894.90
2023-02-21T20:56:34.770Z,94891.85
2023-02-21T20:59:01.125Z,94889.86
2023-02-21T21:01:27.548Z,94897.27
2023-02-21T21:03:53.915Z,94900.78
2023-02-21T21:06:20.302Z,94897.84
2023-02-21T21:08:46.645Z,94894.80
2023-02-21T21:11:13.073Z,94894.11
2023-02-21T21:13:39.385Z,94899.73
2023-02-21T21:16:05.862Z,94888.14
2023-02-21T21:18:32.112Z,94886.95
2023-02-21T21:20:58.494Z,94887.92
2023-02-21T21:23:24.858Z,94881.12
2023-02-21T21:25:51.243Z,94879.83
2023-02-21T21:28:17.578Z,94883.02
2023-02-21T21:30:44.079Z,94880.77
2023-02-21T21:33:10.306Z,94876.68
2023-02-21T21:35:36.692Z,94877.14
2023-02-21T21:38:03.033Z,94873.42
2023-02-21T21:40:29.423Z,94873.42
2023-02-21T21:42:55.766Z,94874.10
2023-02-21T21:45:24.839Z,94873.06
2023-02-21T21:47:48.494Z,94876.00
2023-02-21T21:50:14.881Z,94864.97
2023-02-21T21:52:41.220Z,94872.49
2023-02-21T21:55:07.641Z,94872.49
2023-02-21T21:57:33.968Z,94869.09
2023-02-21T22:00:00.364Z,94865.72
2023-02-21T22:02:26.728Z,94871.34
2023-02-21T22:04:53.115Z,94865.83
2023-02-21T22:07:19.450Z,94864.08
2023-02-21T22:09:45.845Z,94869.02
2023-02-21T22:12:12.173Z,94863.04
2023-02-21T22:14:38.573Z,94869.02
2023-02-21T22:17:04.911Z,94872.17
2023-02-21T22:19:31.298Z,94877.33
2023-02-21T22:21:57.652Z,94871.59
2023-02-21T22:24:24.106Z,94883.30
2023-02-21T22:26:50.453Z,94887.78
2023-02-21T22:29:16.830Z,94891.50
2023-02-21T22:31:43.166Z,94884.48
2023-02-21T22:34:09.558Z,94878.51
2023-02-21T22:36:35.907Z,94880.30
2023-02-21T22:39:02.289Z,94888.95
2023-02-21T22:41:29.059Z,94887.31
2023-02-21T22:43:55.014Z,94884.63
2023-02-21T22:46:21.430Z,94888.27
2023-02-21T22:48:47.775Z,94895.52
2023-02-21T22:51:14.223Z,94898.09
2023-02-21T22:53:40.497Z,94896.47
2023-02-21T22:56:06.888Z,94903.16
2023-02-21T22:58:33.217Z,94903.48
2023-02-21T23:00:59.588Z,94907.03
2023-02-21T23:03:25.968Z,94909.61
2023-02-21T23:05:52.307Z,94910.89
2023-02-21T23:08:18.697Z,94907.49
2023-02-21T23:10:45.048Z,94914.16
2023-02-21T23:13:11.433Z,94905.59
2023-02-21T23:15:37.780Z,94918.02
2023-02-21T23:18:04.155Z,94911.58
2023-02-21T23:20:30.496Z,94912.04
2023-02-21T23:22:56.886Z,94896.03
2023-02-21T23:25:23.223Z,94916.98
2023-02-21T23:27:49.613Z,94917.30
2023-02-21T23:30:16.007Z,94916.98
2023-02-21T23:32:42.341Z,94923.42
2023-02-21T23:35:08.692Z,94920.59
2023-02-21T23:37:35.083Z,94931.25
2023-02-21T23:40:01.422Z,94934.30
2023-02-21T23:42:27.816Z,94932.33
2023-02-21T23:44:54.157Z,94925.52
2023-02-21T23:47:20.573Z,94933.61
2023-02-21T23:49:46.959Z,94931.97
2023-02-21T23:52:13.374Z,94928.45
2023-02-21T23:54:39.711Z,94930.21
2023-02-21T23:57:06.115Z,94920.51
2023-02-21T23:59:32.486Z,94927.05
